createdAt,value
2018-02-17T00:00:15.407Z,39.70
2018-02-17T00:01:15.310Z,39.10
2018-02-17T00:02:15.190Z,40.70
2018-02-17T00:03:15.089Z,34.80
2018-02-17T00:04:14.986Z,37.30
2018-02-17T00:05:14.877Z,33.20
2018-02-17T00:06:14.768Z,38.80
2018-02-17T00:07:14.665Z,36.40
2018-02-17T00:08:14.554Z,39.20
2018-02-17T00:09:14.452Z,41.10
2018-02-17T00:10:14.341Z,38.30
2018-02-17T00:11:14.238Z,35.10
2018-02-17T00:12:14.131Z,40.60
2018-02-17T00:13:14.024Z,41.10
2018-02-17T00:14:13.922Z,46.10
2018-02-17T00:15:13.810Z,38.70
2018-02-17T00:16:13.703Z,38.50
2018-02-17T00:17:13.606Z,38.60
2018-02-17T00:18:13.782Z,38.30
2018-02-17T00:19:13.379Z,35.80
2018-02-17T00:20:13.285Z,40.90
2018-02-17T00:21:13.165Z,41.40
2018-02-17T00:22:13.069Z,40.90
2018-02-17T00:23:13.007Z,47.30
2018-02-17T00:24:12.855Z,38.20
2018-02-17T00:25:12.742Z,36.70
2018-02-17T00:26:12.636Z,37.80
2018-02-17T00:27:12.532Z,42.20
2018-02-17T00:28:12.425Z,42.70
2018-02-17T00:29:12.318Z,46.60
2018-02-17T00:30:12.220Z,41.00
2018-02-17T00:31:12.105Z,40.30
2018-02-17T00:32:11.997Z,38.10
2018-02-17T00:33:11.899Z,46.70
2018-02-17T00:34:11.778Z,48.70
2018-02-17T00:35:11.677Z,40.70
2018-02-17T00:36:11.591Z,42.50
2018-02-17T00:37:11.463Z,42.20
2018-02-17T00:38:11.359Z,36.60
2018-02-17T00:39:11.257Z,39.80
2018-02-17T00:40:11.136Z,41.90
2018-02-17T00:41:11.041Z,41.30
2018-02-17T00:42:10.934Z,42.10
2018-02-17T00:43:10.820Z,45.60
2018-02-17T00:44:10.722Z,41.10
2018-02-17T00:45:10.620Z,41.00
2018-02-17T00:46:10.504Z,45.30
2018-02-17T00:47:10.402Z,47.10
2018-02-17T00:48:10.289Z,44.60
2018-02-17T00:49:10.183Z,44.30
2018-02-17T00:50:10.074Z,43.40
2018-02-17T00:51:09.978Z,47.30
2018-02-17T00:52:09.862Z,46.60
2018-02-17T00:53:09.754Z,46.50
2018-02-17T00:54:09.652Z,36.50
2018-02-17T00:55:09.544Z,42.90
2018-02-17T00:56:09.435Z,40.80
2018-02-17T00:57:09.338Z,48.60
2018-02-17T00:58:09.226Z,44.30
2018-02-17T00:59:09.114Z,44.20
2018-02-17T01:00:09.017Z,40.10
2018-02-17T01:01:08.894Z,40.70
2018-02-17T01:02:08.794Z,43.70
2018-02-17T01:03:08.694Z,46.50
2018-02-17T01:04:08.572Z,48.00
2018-02-17T01:05:08.479Z,39.90
2018-02-17T01:06:08.369Z,38.60
2018-02-17T01:07:08.259Z,40.70
2018-02-17T01:08:08.152Z,43.20
2018-02-17T01:09:08.049Z,46.50
2018-02-17T01:10:07.935Z,42.90
2018-02-17T01:11:07.834Z,42.40
2018-02-17T01:12:07.726Z,49.70
2018-02-17T01:13:07.615Z,45.10
2018-02-17T01:14:07.506Z,43.90
2018-02-17T01:15:07.403Z,39.60
2018-02-17T01:16:07.292Z,47.70
2018-02-17T01:17:07.189Z,43.30
2018-02-17T01:18:07.087Z,38.00
2018-02-17T01:19:06.976Z,43.10
2018-02-17T01:20:06.867Z,47.60
2018-02-17T01:21:06.767Z,46.50
2018-02-17T01:22:06.647Z,41.30
2018-02-17T01:23:06.543Z,43.00
2018-02-17T01:24:06.445Z,46.50
2018-02-17T01:25:06.325Z,48.40
2018-02-17T01:26:06.226Z,44.50
2018-02-17T01:27:06.126Z,42.40
2018-02-17T01:28:06.002Z,44.70
2018-02-17T01:29:05.908Z,44.90
2018-02-17T01:30:05.798Z,40.40
2018-02-17T01:31:05.687Z,45.00
2018-02-17T01:32:05.584Z,42.60
2018-02-17T01:33:05.480Z,44.70
2018-02-17T01:34:05.369Z,48.70
2018-02-17T01:35:05.261Z,44.50
2018-02-17T01:36:05.154Z,47.80
2018-02-17T01:37:05.045Z,48.00
2018-02-17T01:38:04.943Z,45.80
2018-02-17T01:39:04.837Z,46.90
2018-02-17T01:40:04.721Z,41.10
2018-02-17T01:41:04.621Z,39.90
2018-02-17T01:42:04.516Z,40.20
2018-02-17T01:43:04.404Z,44.10
2018-02-17T01:44:04.293Z,42.40
2018-02-17T01:45:04.193Z,43.80
2018-02-17T01:46:04.077Z,41.00
2018-02-17T01:47:03.973Z,40.50
2018-02-17T01:48:03.870Z,37.70
2018-02-17T01:49:03.757Z,45.20
2018-02-17T01:50:03.654Z,37.60
2018-02-17T01:51:03.551Z,41.90
2018-02-17T01:52:03.430Z,40.30
2018-02-17T01:53:03.330Z,42.30
2018-02-17T01:54:03.234Z,37.10
2018-02-17T01:55:03.116Z,40.40
2018-02-17T01:56:03.006Z,45.40
2018-02-17T01:57:02.906Z,44.20
2018-02-17T01:58:02.787Z,40.30
2018-02-17T01:59:02.695Z,41.70
2018-02-17T02:00:02.590Z,45.40
2018-02-17T02:01:02.478Z,43.50
2018-02-17T02:02:02.367Z,40.60
2018-02-17T02:03:02.264Z,47.90
2018-02-17T02:04:02.160Z,48.30
2018-02-17T02:05:02.043Z,44.60
2018-02-17T02:06:01.937Z,47.40
2018-02-17T02:07:01.834Z,45.70
2018-02-17T02:08:01.728Z,44.00
2018-02-17T02:09:01.618Z,45.30
2018-02-17T02:10:01.517Z,45.90
2018-02-17T02:11:01.408Z,41.20
2018-02-17T02:12:01.291Z,39.20
2018-02-17T02:13:01.196Z,37.80
2018-02-17T02:14:01.088Z,42.30
2018-02-17T02:15:00.972Z,40.20
2018-02-17T02:16:00.873Z,38.60
2018-02-17T02:17:00.764Z,35.90
2018-02-17T02:18:00.650Z,42.20
2018-02-17T02:19:00.548Z,42.40
2018-02-17T02:20:00.440Z,38.00
2018-02-17T02:21:00.332Z,41.00
2018-02-17T02:22:00.224Z,39.90
2018-02-17T02:23:00.123Z,39.80
2018-02-17T02:24:00.022Z,42.20
2018-02-17T02:24:59.903Z,40.30
2018-02-17T02:25:59.805Z,39.80
2018-02-17T02:26:59.704Z,41.30
2018-02-17T02:27:59.582Z,41.10
2018-02-17T02:28:59.481Z,38.20
2018-02-17T02:29:59.373Z,42.00
2018-02-17T02:30:59.340Z,41.60
2018-02-17T02:31:59.157Z,40.90
2018-02-17T02:32:59.065Z,40.60
2018-02-17T02:33:58.953Z,46.20
2018-02-17T02:34:58.838Z,44.00
2018-02-17T02:35:58.731Z,34.00
2018-02-17T02:36:58.632Z,45.30
2018-02-17T02:37:58.521Z,46.20
2018-02-17T02:38:58.407Z,38.70
2018-02-17T02:39:58.312Z,41.00
2018-02-17T02:40:58.199Z,43.20
2018-02-17T02:41:58.088Z,44.20
2018-02-17T02:42:57.984Z,43.90
2018-02-17T02:43:57.876Z,46.80
2018-02-17T02:44:57.780Z,43.70
2018-02-17T02:45:57.661Z,38.10
2018-02-17T02:46:57.558Z,42.40
2018-02-17T02:47:57.463Z,41.50
2018-02-17T02:48:57.351Z,44.90
2018-02-17T02:49:57.244Z,41.60
2018-02-17T02:50:57.133Z,41.70
2018-02-17T02:51:57.025Z,43.90
2018-02-17T02:52:56.918Z,42.20
2018-02-17T02:53:56.809Z,45.40
2018-02-17T02:54:56.705Z,41.40
2018-02-17T02:55:56.620Z,41.60
2018-02-17T02:56:56.487Z,48.90
2018-02-17T02:57:56.389Z,49.70
2018-02-17T02:58:56.285Z,44.50
2018-02-17T02:59:56.169Z,42.90
2018-02-17T03:00:56.066Z,42.90
2018-02-17T03:01:55.957Z,47.50
2018-02-17T03:02:55.858Z,40.80
2018-02-17T03:03:55.745Z,41.40
2018-02-17T03:04:55.634Z,36.60
2018-02-17T03:05:55.534Z,43.70
2018-02-17T03:06:55.423Z,49.80
2018-02-17T03:07:55.317Z,42.00
2018-02-17T03:08:55.214Z,42.50
2018-02-17T03:09:55.099Z,42.90
2018-02-17T03:10:54.994Z,42.30
2018-02-17T03:11:54.894Z,41.20
2018-02-17T03:12:54.784Z,43.90
2018-02-17T03:13:54.673Z,36.90
2018-02-17T03:14:54.569Z,41.00
2018-02-17T03:15:54.463Z,38.20
2018-02-17T03:16:54.363Z,37.50
2018-02-17T03:17:54.241Z,38.40
2018-02-17T03:18:54.141Z,38.20
2018-02-17T03:19:54.044Z,40.40
2018-02-17T03:20:53.924Z,35.10
2018-02-17T03:21:53.823Z,39.30
2018-02-17T03:22:53.718Z,43.80
2018-02-17T03:23:53.611Z,35.30
2018-02-17T03:24:53.498Z,39.00
2018-02-17T03:25:53.396Z,38.70
2018-02-17T03:26:53.288Z,39.80
2018-02-17T03:27:53.181Z,45.60
2018-02-17T03:28:53.072Z,34.60
2018-02-17T03:29:52.971Z,33.90
2018-02-17T03:30:52.879Z,39.70
2018-02-17T03:31:52.750Z,37.10
2018-02-17T03:32:52.649Z,37.10
2018-02-17T03:33:52.541Z,38.00
2018-02-17T03:34:52.438Z,34.90
2018-02-17T03:35:52.326Z,38.00
2018-02-17T03:36:52.222Z,41.30
2018-02-17T03:37:52.121Z,35.20
2018-02-17T03:38:52.014Z,43.10
2018-02-17T03:39:51.894Z,32.80
2018-02-17T03:40:51.800Z,33.40
2018-02-17T03:41:51.693Z,39.60
2018-02-17T03:42:51.839Z,40.60
2018-02-17T03:43:51.478Z,40.50
2018-02-17T03:44:51.366Z,33.90
2018-02-17T03:45:51.266Z,35.10
2018-02-17T03:46:51.165Z,35.50
2018-02-17T03:47:51.054Z,37.80
2018-02-17T03:48:50.942Z,34.80
2018-02-17T03:49:50.836Z,36.60
2018-02-17T03:50:50.737Z,34.30
2018-02-17T03:51:50.633Z,32.50
2018-02-17T03:52:50.514Z,41.40
2018-02-17T03:53:50.413Z,37.10
2018-02-17T03:54:50.312Z,31.80
2018-02-17T03:55:50.204Z,34.20
2018-02-17T03:56:50.102Z,42.20
2018-02-17T03:57:49.987Z,34.40
2018-02-17T03:58:49.882Z,33.20
2018-02-17T03:59:49.780Z,35.30
2018-02-17T04:00:49.675Z,35.90
2018-02-17T04:01:49.559Z,34.80
2018-02-17T04:02:49.452Z,32.40
2018-02-17T04:03:49.353Z,37.60
2018-02-17T04:04:49.247Z,32.80
2018-02-17T04:05:49.147Z,41.80
2018-02-17T04:06:49.030Z,37.30
2018-02-17T04:07:48.923Z,34.30
2018-02-17T04:08:48.818Z,37.80
2018-02-17T04:09:48.715Z,33.50
2018-02-17T04:10:48.611Z,37.40
2018-02-17T04:11:48.498Z,37.40
2018-02-17T04:12:48.393Z,34.50
2018-02-17T04:13:48.298Z,33.70
2018-02-17T04:14:48.191Z,31.90
2018-02-17T04:15:48.083Z,33.10
2018-02-17T04:16:47.973Z,34.80
2018-02-17T04:17:48.168Z,32.30
2018-02-17T04:18:47.761Z,35.30
2018-02-17T04:19:47.665Z,33.80
2018-02-17T04:20:47.544Z,31.50
2018-02-17T04:21:47.443Z,33.00
2018-02-17T04:22:47.335Z,37.30
2018-02-17T04:23:47.232Z,38.70
2018-02-17T04:24:47.138Z,35.80
2018-02-17T04:25:47.014Z,31.40
2018-02-17T04:26:46.910Z,33.10
2018-02-17T04:27:47.062Z,36.80
2018-02-17T04:28:46.698Z,38.30
2018-02-17T04:29:46.588Z,35.90
2018-02-17T04:30:46.490Z,37.00
2018-02-17T04:31:46.380Z,32.90
2018-02-17T04:32:46.277Z,34.10
2018-02-17T04:33:46.169Z,34.90
2018-02-17T04:34:46.054Z,35.00
2018-02-17T04:35:45.954Z,39.00
2018-02-17T04:36:45.852Z,34.40
2018-02-17T04:37:45.749Z,32.00
2018-02-17T04:38:45.647Z,36.80
2018-02-17T04:39:45.543Z,34.80
2018-02-17T04:40:45.427Z,31.70
2018-02-17T04:41:45.317Z,37.50
2018-02-17T04:42:45.216Z,33.50
2018-02-17T04:43:45.118Z,37.50
2018-02-17T04:44:44.996Z,34.50
2018-02-17T04:45:44.899Z,36.50
2018-02-17T04:46:44.794Z,36.90
2018-02-17T04:47:44.688Z,37.90
2018-02-17T04:48:44.577Z,35.00
2018-02-17T04:49:44.468Z,42.70
2018-02-17T04:50:44.364Z,39.90
2018-02-17T04:51:44.267Z,35.80
2018-02-17T04:52:44.170Z,36.70
2018-02-17T04:53:44.042Z,37.40
2018-02-17T04:54:43.944Z,37.20
2018-02-17T04:55:43.831Z,32.60
2018-02-17T04:56:43.739Z,37.90
2018-02-17T04:57:43.629Z,33.80
2018-02-17T04:58:43.520Z,36.50
2018-02-17T04:59:43.414Z,35.90
2018-02-17T05:00:43.301Z,36.00
2018-02-17T05:01:43.202Z,36.10
2018-02-17T05:02:43.100Z,35.70
2018-02-17T05:03:42.984Z,36.50
2018-02-17T05:04:42.885Z,34.70
2018-02-17T05:05:42.774Z,34.30
2018-02-17T05:06:42.673Z,35.80
2018-02-17T05:07:42.870Z,35.90
2018-02-17T05:08:42.451Z,36.20
2018-02-17T05:09:42.351Z,44.80
2018-02-17T05:10:42.247Z,36.40
2018-02-17T05:11:42.138Z,32.90
2018-02-17T05:12:42.041Z,39.20
2018-02-17T05:13:41.922Z,40.20
2018-02-17T05:14:41.820Z,36.70
2018-02-17T05:15:41.719Z,31.90
2018-02-17T05:16:41.611Z,32.40
2018-02-17T05:17:41.509Z,34.40
2018-02-17T05:18:41.395Z,36.60
2018-02-17T05:19:41.289Z,32.40
2018-02-17T05:20:41.188Z,31.40
2018-02-17T05:21:41.077Z,37.90
2018-02-17T05:22:40.975Z,34.10
2018-02-17T05:23:40.863Z,34.70
2018-02-17T05:24:40.758Z,33.10
2018-02-17T05:25:40.658Z,37.50
2018-02-17T05:26:40.554Z,34.80
2018-02-17T05:27:40.447Z,35.80
2018-02-17T05:28:40.349Z,33.80
2018-02-17T05:29:40.224Z,36.50
2018-02-17T05:30:40.125Z,35.80
2018-02-17T05:31:40.028Z,33.40
2018-02-17T05:32:39.915Z,36.20
2018-02-17T05:33:39.816Z,33.20
2018-02-17T05:34:39.700Z,31.60
2018-02-17T05:35:39.593Z,33.10
2018-02-17T05:36:39.496Z,36.10
2018-02-17T05:37:39.386Z,36.60
2018-02-17T05:38:39.283Z,36.00
2018-02-17T05:39:39.187Z,37.10
2018-02-17T05:40:39.066Z,33.60
2018-02-17T05:41:38.960Z,31.30
2018-02-17T05:42:38.864Z,34.10
2018-02-17T05:43:38.759Z,35.50
2018-02-17T05:44:38.653Z,30.50
2018-02-17T05:45:38.532Z,34.40
2018-02-17T05:46:38.432Z,35.60
2018-02-17T05:47:38.330Z,33.90
2018-02-17T05:48:38.220Z,34.40
2018-02-17T05:49:38.123Z,31.20
2018-02-17T05:50:38.028Z,31.50
2018-02-17T05:51:37.901Z,31.00
2018-02-17T05:52:37.799Z,36.20
2018-02-17T05:53:37.691Z,33.80
2018-02-17T05:54:37.593Z,39.20
2018-02-17T05:55:37.492Z,39.50
2018-02-17T05:56:37.383Z,36.40
2018-02-17T05:57:37.275Z,36.80
2018-02-17T05:58:37.168Z,34.80
2018-02-17T05:59:37.064Z,33.00
2018-02-17T06:00:36.959Z,31.10
2018-02-17T06:01:36.851Z,33.20
2018-02-17T06:02:36.991Z,35.60
2018-02-17T06:03:36.635Z,34.50
2018-02-17T06:04:36.530Z,33.50
2018-02-17T06:05:36.433Z,37.80
2018-02-17T06:06:36.329Z,32.80
2018-02-17T06:07:36.222Z,30.10
2018-02-17T06:08:36.124Z,37.70
2018-02-17T06:09:36.003Z,34.50
2018-02-17T06:10:35.896Z,33.80
2018-02-17T06:11:35.797Z,35.80
2018-02-17T06:12:35.692Z,35.30
2018-02-17T06:13:35.587Z,37.30
2018-02-17T06:14:35.485Z,31.20
2018-02-17T06:15:35.380Z,35.60
2018-02-17T06:16:35.268Z,33.00
2018-02-17T06:17:35.158Z,36.10
2018-02-17T06:18:35.055Z,37.30
2018-02-17T06:19:34.960Z,38.40
2018-02-17T06:20:34.853Z,37.70
2018-02-17T06:21:34.754Z,39.80
2018-02-17T06:22:34.882Z,34.60
2018-02-17T06:23:34.524Z,36.10
2018-02-17T06:24:34.430Z,36.00
2018-02-17T06:25:34.320Z,33.40
2018-02-17T06:26:34.219Z,32.00
2018-02-17T06:27:34.118Z,35.80
2018-02-17T06:28:33.998Z,34.90
2018-02-17T06:29:33.899Z,32.80
2018-02-17T06:30:33.796Z,39.60
2018-02-17T06:31:33.686Z,34.10
2018-02-17T06:32:33.584Z,35.30
2018-02-17T06:33:33.476Z,34.40
2018-02-17T06:34:33.379Z,35.00
2018-02-17T06:35:33.263Z,33.80
2018-02-17T06:36:33.158Z,34.30
2018-02-17T06:37:33.058Z,37.30
2018-02-17T06:38:32.956Z,33.20
2018-02-17T06:39:32.851Z,33.90
2018-02-17T06:40:32.747Z,36.30
2018-02-17T06:41:32.628Z,33.30
2018-02-17T06:42:32.773Z,36.00
2018-02-17T06:43:32.426Z,32.60
2018-02-17T06:44:32.318Z,31.90
2018-02-17T06:45:32.216Z,33.20
2018-02-17T06:46:32.112Z,37.90
2018-02-17T06:47:32.011Z,32.60
2018-02-17T06:48:31.895Z,35.10
2018-02-17T06:49:31.796Z,37.60
2018-02-17T06:50:31.684Z,34.70
2018-02-17T06:51:31.586Z,32.20
2018-02-17T06:52:31.480Z,30.70
2018-02-17T06:53:31.376Z,38.80
2018-02-17T06:54:31.260Z,39.30
2018-02-17T06:55:31.157Z,29.60
2018-02-17T06:56:31.067Z,32.70
2018-02-17T06:57:30.945Z,29.40
2018-02-17T06:58:30.842Z,31.00
2018-02-17T06:59:30.742Z,34.40
2018-02-17T07:00:30.641Z,37.70
2018-02-17T07:01:30.527Z,37.10
2018-02-17T07:02:30.422Z,38.80
2018-02-17T07:03:30.314Z,36.50
2018-02-17T07:04:30.217Z,32.20
2018-02-17T07:05:30.107Z,36.00
2018-02-17T07:06:30.006Z,34.90
2018-02-17T07:07:29.891Z,39.00
2018-02-17T07:08:29.786Z,39.10
2018-02-17T07:09:29.687Z,36.60
2018-02-17T07:10:29.583Z,38.90
2018-02-17T07:11:29.475Z,32.10
2018-02-17T07:12:29.374Z,31.10
2018-02-17T07:13:29.312Z,32.40
2018-02-17T07:14:29.152Z,36.70
2018-02-17T07:15:29.051Z,34.40
2018-02-17T07:16:28.951Z,35.50
2018-02-17T07:17:28.848Z,37.20
2018-02-17T07:18:28.747Z,32.60
2018-02-17T07:19:28.638Z,34.60
2018-02-17T07:20:28.539Z,29.90
2018-02-17T07:21:28.416Z,32.50
2018-02-17T07:22:28.314Z,31.60
2018-02-17T07:23:28.212Z,36.90
2018-02-17T07:24:28.106Z,34.00
2018-02-17T07:25:28.007Z,28.90
2018-02-17T07:26:27.904Z,30.30
2018-02-17T07:27:27.798Z,37.20
2018-02-17T07:28:27.690Z,32.40
2018-02-17T07:29:27.579Z,28.60
2018-02-17T07:30:27.479Z,32.10
2018-02-17T07:31:27.376Z,31.70
2018-02-17T07:32:27.265Z,32.50
2018-02-17T07:33:27.173Z,31.40
2018-02-17T07:34:27.063Z,31.10
2018-02-17T07:35:26.956Z,29.00
2018-02-17T07:36:26.847Z,31.00
2018-02-17T07:37:26.738Z,31.20
2018-02-17T07:38:26.637Z,36.40
2018-02-17T07:39:26.536Z,29.30
2018-02-17T07:40:26.430Z,31.40
2018-02-17T07:41:26.336Z,32.60
2018-02-17T07:42:26.224Z,32.70
2018-02-17T07:43:26.122Z,34.90
2018-02-17T07:44:26.022Z,28.20
2018-02-17T07:45:25.898Z,29.60
2018-02-17T07:46:25.794Z,28.70
2018-02-17T07:47:25.699Z,32.40
2018-02-17T07:48:25.591Z,32.60
2018-02-17T07:49:25.491Z,36.50
2018-02-17T07:50:25.386Z,29.10
2018-02-17T07:51:25.280Z,34.20
2018-02-17T07:52:25.178Z,30.50
2018-02-17T07:53:25.071Z,31.10
2018-02-17T07:54:24.957Z,29.00
2018-02-17T07:55:24.860Z,28.70
2018-02-17T07:56:24.768Z,33.70
2018-02-17T07:57:24.650Z,29.30
2018-02-17T07:58:24.548Z,28.90
2018-02-17T07:59:24.444Z,26.90
2018-02-17T08:00:24.341Z,27.60
2018-02-17T08:01:24.233Z,27.70
2018-02-17T08:02:24.129Z,28.10
2018-02-17T08:03:24.034Z,31.60
2018-02-17T08:04:23.924Z,35.30
2018-02-17T08:05:23.826Z,28.30
2018-02-17T08:06:23.708Z,33.60
2018-02-17T08:07:23.853Z,31.50
2018-02-17T08:08:23.503Z,34.20
2018-02-17T08:09:23.395Z,37.10
2018-02-17T08:10:23.294Z,29.50
2018-02-17T08:11:23.192Z,31.30
2018-02-17T08:12:23.089Z,32.70
2018-02-17T08:13:22.983Z,32.70
2018-02-17T08:14:22.883Z,29.10
2018-02-17T08:15:22.780Z,29.30
2018-02-17T08:16:22.669Z,33.70
2018-02-17T08:17:22.821Z,29.80
2018-02-17T08:18:22.474Z,32.80
2018-02-17T08:19:22.359Z,29.30
2018-02-17T08:20:22.263Z,32.10
2018-02-17T08:21:22.144Z,30.60
2018-02-17T08:22:22.042Z,32.00
2018-02-17T08:23:21.951Z,31.90
2018-02-17T08:24:21.836Z,32.40
2018-02-17T08:25:21.731Z,28.90
2018-02-17T08:26:21.634Z,27.80
2018-02-17T08:27:21.521Z,32.10
2018-02-17T08:28:21.426Z,26.70
2018-02-17T08:29:21.316Z,27.90
2018-02-17T08:30:21.217Z,31.40
2018-02-17T08:31:21.115Z,32.30
2018-02-17T08:32:21.006Z,29.50
2018-02-17T08:33:20.908Z,29.50
2018-02-17T08:34:20.805Z,27.90
2018-02-17T08:35:20.699Z,31.30
2018-02-17T08:36:20.596Z,30.30
2018-02-17T08:37:20.489Z,32.80
2018-02-17T08:38:20.385Z,29.60
2018-02-17T08:39:20.290Z,29.40
2018-02-17T08:40:20.180Z,32.00
2018-02-17T08:41:20.082Z,31.00
2018-02-17T08:42:19.968Z,40.70
2018-02-17T08:43:19.863Z,32.10
2018-02-17T08:44:19.762Z,34.00
2018-02-17T08:45:19.649Z,31.40
2018-02-17T08:46:19.553Z,30.90
2018-02-17T08:47:19.447Z,32.10
2018-02-17T08:48:19.343Z,27.60
2018-02-17T08:49:19.242Z,30.20
2018-02-17T08:50:19.141Z,30.30
2018-02-17T08:51:19.029Z,35.60
2018-02-17T08:52:18.939Z,36.00
2018-02-17T08:53:18.828Z,34.90
2018-02-17T08:54:18.723Z,32.20
2018-02-17T08:55:18.624Z,28.30
2018-02-17T08:56:18.515Z,29.40
2018-02-17T08:57:18.421Z,25.90
2018-02-17T08:58:18.310Z,28.60
2018-02-17T08:59:18.210Z,34.80
2018-02-17T09:00:18.107Z,31.10
2018-02-17T09:01:18.005Z,27.80
2018-02-17T09:02:18.152Z,32.10
2018-02-17T09:03:17.799Z,36.20
2018-02-17T09:04:17.693Z,32.80
2018-02-17T09:05:17.590Z,30.60
2018-02-17T09:06:17.487Z,28.90
2018-02-17T09:07:17.382Z,30.00
2018-02-17T09:08:17.278Z,30.90
2018-02-17T09:09:17.171Z,26.50
2018-02-17T09:10:17.071Z,32.00
2018-02-17T09:11:16.998Z,26.80
2018-02-17T09:12:16.863Z,30.10
2018-02-17T09:13:16.768Z,26.90
2018-02-17T09:14:16.667Z,30.70
2018-02-17T09:15:16.557Z,24.80
2018-02-17T09:16:16.457Z,31.00
2018-02-17T09:17:16.343Z,26.20
2018-02-17T09:18:16.241Z,28.20
2018-02-17T09:19:16.144Z,27.80
2018-02-17T09:20:16.041Z,25.50
2018-02-17T09:21:15.938Z,31.30
2018-02-17T09:22:16.084Z,28.90
2018-02-17T09:23:15.727Z,30.30
2018-02-17T09:24:15.639Z,30.60
2018-02-17T09:25:15.524Z,34.50
2018-02-17T09:26:15.418Z,28.40
2018-02-17T09:27:15.317Z,25.40
2018-02-17T09:28:15.234Z,27.30
2018-02-17T09:29:15.125Z,23.80
2018-02-17T09:30:15.021Z,24.70
2018-02-17T09:31:14.924Z,26.70
2018-02-17T09:32:14.811Z,27.90
2018-02-17T09:33:14.704Z,27.30
2018-02-17T09:34:14.600Z,27.40
2018-02-17T09:35:14.501Z,25.30
2018-02-17T09:36:14.394Z,29.00
2018-02-17T09:37:14.300Z,28.40
2018-02-17T09:38:14.195Z,22.90
2018-02-17T09:39:14.084Z,25.20
2018-02-17T09:40:13.988Z,24.30
2018-02-17T09:41:13.882Z,25.90
2018-02-17T09:42:13.793Z,24.90
2018-02-17T09:43:13.691Z,25.40
2018-02-17T09:44:13.585Z,24.90
2018-02-17T09:45:13.481Z,21.50
2018-02-17T09:46:13.377Z,24.70
2018-02-17T09:47:13.278Z,23.20
2018-02-17T09:48:13.177Z,26.10
2018-02-17T09:49:13.067Z,25.20
2018-02-17T09:50:12.961Z,24.30
2018-02-17T09:51:12.865Z,26.20
2018-02-17T09:52:12.769Z,26.30
2018-02-17T09:53:12.711Z,26.80
2018-02-17T09:54:12.567Z,24.50
2018-02-17T09:55:12.457Z,23.80
2018-02-17T09:56:12.357Z,21.10
2018-02-17T09:57:12.253Z,25.30
2018-02-17T09:58:12.145Z,24.80
2018-02-17T09:59:12.049Z,25.00
2018-02-17T10:00:11.954Z,22.80
2018-02-17T10:01:11.856Z,26.10
2018-02-17T10:02:12.003Z,25.10
2018-02-17T10:03:11.644Z,28.20
2018-02-17T10:04:11.543Z,25.30
2018-02-17T10:05:11.440Z,23.00
2018-02-17T10:06:11.339Z,19.20
2018-02-17T10:07:11.245Z,24.20
2018-02-17T10:08:11.144Z,25.40
2018-02-17T10:09:11.041Z,24.80
2018-02-17T10:10:10.936Z,25.30
2018-02-17T10:11:10.832Z,24.80
2018-02-17T10:12:10.733Z,26.60
2018-02-17T10:13:10.627Z,23.10
2018-02-17T10:14:10.523Z,27.70
2018-02-17T10:15:10.434Z,22.10
2018-02-17T10:16:10.330Z,24.30
2018-02-17T10:17:10.225Z,23.10
2018-02-17T10:18:10.128Z,24.00
2018-02-17T10:19:10.015Z,25.40
2018-02-17T10:20:09.916Z,24.10
2018-02-17T10:21:09.810Z,24.50
2018-02-17T10:22:09.718Z,23.80
2018-02-17T10:23:09.662Z,25.00
2018-02-17T10:24:09.516Z,25.40
2018-02-17T10:25:09.409Z,28.40
2018-02-17T10:26:09.310Z,24.00
2018-02-17T10:27:09.207Z,27.00
2018-02-17T10:28:09.110Z,23.70
2018-02-17T10:29:09.017Z,24.60
2018-02-17T10:30:08.907Z,29.20
2018-02-17T10:31:08.800Z,24.70
2018-02-17T10:32:08.708Z,23.30
2018-02-17T10:33:08.595Z,26.90
2018-02-17T10:34:08.494Z,29.20
2018-02-17T10:35:08.406Z,24.60
2018-02-17T10:36:08.300Z,30.10
2018-02-17T10:37:08.203Z,26.30
2018-02-17T10:38:08.097Z,20.20
2018-02-17T10:39:07.987Z,21.50
2018-02-17T10:40:07.891Z,24.10
2018-02-17T10:41:07.780Z,20.40
2018-02-17T10:42:07.692Z,20.50
2018-02-17T10:43:07.584Z,24.80
2018-02-17T10:44:07.488Z,23.90
2018-02-17T10:45:07.387Z,22.80
2018-02-17T10:46:07.282Z,22.50
2018-02-17T10:47:07.188Z,24.00
2018-02-17T10:48:07.089Z,23.40
2018-02-17T10:49:06.979Z,29.00
2018-02-17T10:50:06.875Z,22.90
2018-02-17T10:51:06.777Z,23.00
2018-02-17T10:52:06.674Z,29.10
2018-02-17T10:53:06.579Z,25.60
2018-02-17T10:54:06.483Z,23.00
2018-02-17T10:55:06.374Z,20.30
2018-02-17T10:56:06.274Z,21.50
2018-02-17T10:57:06.166Z,21.70
2018-02-17T10:58:06.065Z,23.70
2018-02-17T10:59:05.975Z,23.80
2018-02-17T11:00:05.865Z,25.10
2018-02-17T11:01:05.783Z,21.60
2018-02-17T11:02:05.664Z,23.50
2018-02-17T11:03:05.557Z,22.30
2018-02-17T11:04:05.477Z,24.30
2018-02-17T11:05:05.364Z,25.90
2018-02-17T11:06:05.263Z,19.70
2018-02-17T11:07:05.165Z,21.50
2018-02-17T11:08:05.080Z,20.70
2018-02-17T11:09:04.965Z,21.90
2018-02-17T11:10:04.868Z,25.40
2018-02-17T11:11:04.755Z,25.30
2018-02-17T11:12:04.657Z,27.20
2018-02-17T11:13:04.562Z,23.70
2018-02-17T11:14:04.457Z,27.20
2018-02-17T11:15:04.361Z,24.80
2018-02-17T11:16:04.254Z,27.00
2018-02-17T11:17:04.166Z,23.80
2018-02-17T11:18:04.063Z,22.20
2018-02-17T11:19:03.959Z,22.70
2018-02-17T11:20:03.856Z,21.10
2018-02-17T11:21:03.759Z,22.80
2018-02-17T11:22:03.906Z,20.00
2018-02-17T11:23:03.557Z,22.00
2018-02-17T11:24:03.464Z,21.50
2018-02-17T11:25:03.364Z,20.30
2018-02-17T11:26:03.263Z,21.20
2018-02-17T11:27:03.157Z,23.20
2018-02-17T11:28:03.071Z,21.80
2018-02-17T11:29:02.960Z,23.20
2018-02-17T11:30:02.854Z,23.30
2018-02-17T11:31:02.756Z,26.00
2018-02-17T11:32:02.664Z,26.90
2018-02-17T11:33:02.562Z,23.20
2018-02-17T11:34:02.462Z,24.10
2018-02-17T11:35:02.407Z,17.50
2018-02-17T11:36:02.264Z,21.60
2018-02-17T11:37:02.161Z,24.80
2018-02-17T11:38:02.058Z,20.60
2018-02-17T11:39:01.969Z,25.40
2018-02-17T11:40:01.861Z,21.30
2018-02-17T11:41:01.761Z,26.30
2018-02-17T11:42:01.671Z,21.90
2018-02-17T11:43:01.617Z,22.20
2018-02-17T11:44:01.464Z,23.30
2018-02-17T11:45:01.368Z,22.70
2018-02-17T11:46:01.265Z,27.90
2018-02-17T11:47:01.169Z,20.30
2018-02-17T11:48:01.059Z,24.30
2018-02-17T11:49:00.974Z,27.30
2018-02-17T11:50:00.873Z,23.70
2018-02-17T11:51:00.762Z,25.50
2018-02-17T11:52:00.676Z,21.30
2018-02-17T11:53:00.570Z,23.30
2018-02-17T11:54:00.464Z,19.30
2018-02-17T11:55:00.377Z,26.10
2018-02-17T11:56:00.268Z,23.20
2018-02-17T11:57:00.172Z,19.20
2018-02-17T11:58:00.117Z,25.00
2018-02-17T11:58:59.974Z,23.70
2018-02-17T11:59:59.872Z,23.50
2018-02-17T12:00:59.780Z,19.60
2018-02-17T12:01:59.923Z,18.80
2018-02-17T12:02:59.581Z,21.70
2018-02-17T12:03:59.483Z,21.60
2018-02-17T12:04:59.382Z,25.70
2018-02-17T12:05:59.278Z,24.70
2018-02-17T12:06:59.185Z,26.30
2018-02-17T12:07:59.083Z,28.90
2018-02-17T12:08:58.981Z,24.70
2018-02-17T12:09:58.886Z,26.40
2018-02-17T12:10:58.785Z,26.00
2018-02-17T12:11:58.690Z,24.30
2018-02-17T12:12:58.593Z,20.50
2018-02-17T12:13:58.497Z,22.20
2018-02-17T12:14:58.381Z,22.00
2018-02-17T12:15:58.295Z,24.50
2018-02-17T12:16:58.193Z,21.80
2018-02-17T12:17:58.088Z,22.40
2018-02-17T12:18:57.998Z,26.40
2018-02-17T12:19:57.894Z,23.90
2018-02-17T12:20:57.790Z,22.30
2018-02-17T12:21:57.949Z,22.50
2018-02-17T12:22:57.592Z,23.30
2018-02-17T12:23:57.495Z,19.50
2018-02-17T12:24:57.389Z,18.80
2018-02-17T12:25:57.300Z,21.30
2018-02-17T12:26:57.198Z,19.50
2018-02-17T12:27:57.107Z,20.40
2018-02-17T12:28:57.002Z,20.30
2018-02-17T12:29:56.898Z,21.00
2018-02-17T12:30:56.810Z,18.30
2018-02-17T12:31:56.699Z,22.00
2018-02-17T12:32:56.599Z,22.20
2018-02-17T12:33:56.508Z,21.50
2018-02-17T12:34:56.405Z,18.50
2018-02-17T12:35:56.304Z,21.40
2018-02-17T12:36:56.212Z,19.20
2018-02-17T12:37:56.106Z,20.50
2018-02-17T12:38:56.008Z,21.30
2018-02-17T12:39:55.912Z,18.70
2018-02-17T12:40:55.811Z,19.90
2018-02-17T12:41:55.961Z,19.10
2018-02-17T12:42:55.612Z,18.40
2018-02-17T12:43:55.515Z,21.10
2018-02-17T12:44:55.408Z,21.10
2018-02-17T12:45:55.317Z,20.70
2018-02-17T12:46:55.219Z,25.00
2018-02-17T12:47:55.113Z,19.30
2018-02-17T12:48:55.024Z,23.70
2018-02-17T12:49:54.952Z,21.20
2018-02-17T12:50:54.855Z,17.90